createdAt,value
2022-12-18T00:01:28.920Z,28.90
2022-12-18T00:03:57.004Z,53.67
2022-12-18T00:06:26.269Z,31.80
2022-12-18T00:08:54.172Z,36.03
2022-12-18T00:11:25.039Z,28.63
2022-12-18T00:13:54.296Z,37.20
2022-12-18T00:16:24.418Z,33.43
2022-12-18T00:18:54.646Z,32.90
2022-12-18T00:21:22.782Z,31.70
2022-12-18T00:23:51.382Z,31.97
2022-12-18T00:26:25.863Z,35.57
2022-12-18T00:28:53.992Z,37.20
2022-12-18T00:31:24.504Z,34.63
2022-12-18T00:33:53.966Z,30.93
2022-12-18T00:36:29.587Z,32.17
2022-12-18T00:38:59.165Z,30.73
2022-12-18T00:41:45.074Z,32.50
2022-12-18T00:44:16.049Z,33.63
2022-12-18T00:46:45.362Z,37.10
2022-12-18T00:49:12.404Z,31.57
2022-12-18T00:51:39.360Z,33.37
2022-12-18T00:54:06.455Z,30.77
2022-12-18T00:56:33.388Z,34.80
2022-12-18T00:59:00.341Z,36.13
2022-12-18T01:01:27.922Z,32.47
2022-12-18T01:03:54.927Z,27.63
2022-12-18T01:06:21.968Z,31.57
2022-12-18T01:08:48.947Z,29.33
2022-12-18T01:11:19.231Z,34.73
2022-12-18T01:13:46.219Z,32.67
2022-12-18T01:16:16.301Z,32.20
2022-12-18T01:18:43.815Z,36.63
2022-12-18T01:21:14.640Z,32.30
2022-12-18T01:23:42.082Z,34.50
2022-12-18T01:26:14.275Z,39.73
2022-12-18T01:28:41.769Z,32.10
2022-12-18T01:31:20.701Z,31.67
2022-12-18T01:33:49.812Z,33.73
2022-12-18T01:36:24.256Z,35.87
2022-12-18T01:38:52.974Z,31.47
2022-12-18T01:41:26.032Z,30.27
2022-12-18T01:44:00.377Z,32.60
2022-12-18T01:46:28.412Z,32.90
2022-12-18T01:49:02.137Z,29.53
2022-12-18T01:51:31.026Z,32.63
2022-12-18T01:53:58.740Z,34.13
2022-12-18T01:56:25.741Z,30.07
2022-12-18T01:59:04.865Z,32.53
2022-12-18T02:01:33.637Z,30.00
2022-12-18T02:04:24.635Z,29.13
2022-12-18T02:07:26.568Z,34.33
2022-12-18T02:10:03.211Z,28.20
2022-12-18T02:12:46.286Z,32.87
2022-12-18T02:15:24.781Z,32.47
2022-12-18T02:18:02.390Z,27.33
2022-12-18T02:20:50.123Z,31.80
2022-12-18T02:23:37.460Z,31.97
2022-12-18T02:26:26.836Z,32.47
2022-12-18T02:29:23.806Z,29.43
2022-12-18T02:31:56.093Z,27.20
2022-12-18T02:34:29.385Z,29.40
2022-12-18T02:36:58.611Z,27.90
2022-12-18T02:39:27.906Z,29.70
2022-12-18T02:41:55.046Z,30.53
2022-12-18T02:44:22.009Z,33.33
2022-12-18T02:46:54.463Z,27.33
2022-12-18T02:50:03.353Z,32.67
2022-12-18T02:52:51.626Z,27.27
2022-12-18T02:55:48.941Z,27.60
2022-12-18T02:59:09.171Z,28.33
2022-12-18T03:01:53.258Z,30.07
2022-12-18T03:04:27.921Z,32.30
2022-12-18T03:07:01.470Z,31.37
2022-12-18T03:09:37.986Z,34.70
2022-12-18T03:12:25.588Z,31.63
2022-12-18T03:15:04.249Z,37.83
2022-12-18T03:17:34.699Z,30.23
2022-12-18T03:20:11.693Z,30.80
2022-12-18T03:22:42.417Z,30.63
2022-12-18T03:25:14.418Z,28.27
2022-12-18T03:27:48.615Z,29.47
2022-12-18T03:30:18.034Z,34.20
2022-12-18T03:33:08.861Z,25.57
2022-12-18T03:35:41.237Z,26.53
2022-12-18T03:38:08.952Z,23.40
2022-12-18T03:41:24.897Z,28.50
2022-12-18T03:44:12.911Z,27.00
2022-12-18T03:47:17.769Z,28.63
2022-12-18T03:50:12.799Z,28.73
2022-12-18T03:52:53.917Z,25.57
2022-12-18T03:55:22.820Z,26.67
2022-12-18T03:57:51.072Z,27.27
2022-12-18T04:00:20.599Z,24.83
2022-12-18T04:02:53.282Z,28.73
2022-12-18T04:05:22.776Z,29.97
2022-12-18T04:07:51.824Z,28.67
2022-12-18T04:10:19.630Z,30.03
2022-12-18T04:12:46.761Z,27.47
2022-12-18T04:15:14.214Z,28.90
2022-12-18T04:17:49.672Z,30.57
2022-12-18T04:20:17.570Z,26.37
2022-12-18T04:22:44.558Z,24.93
2022-12-18T04:25:13.543Z,25.97
2022-12-18T04:27:40.680Z,25.77
2022-12-18T04:30:09.200Z,25.27
2022-12-18T04:32:36.246Z,27.27
2022-12-18T04:35:05.243Z,22.57
2022-12-18T04:37:32.215Z,25.33
2022-12-18T04:39:59.262Z,26.00
2022-12-18T04:42:26.195Z,24.17
2022-12-18T04:44:53.130Z,27.47
2022-12-18T04:47:20.073Z,25.83
2022-12-18T04:49:47.089Z,22.77
2022-12-18T04:52:14.020Z,21.60
2022-12-18T04:54:40.949Z,21.10
2022-12-18T04:57:07.978Z,23.23
2022-12-18T04:59:34.980Z,25.00
2022-12-18T05:02:02.009Z,26.67
2022-12-18T05:04:29.073Z,21.87
2022-12-18T05:06:56.047Z,22.37
2022-12-18T05:09:22.965Z,21.87
2022-12-18T05:11:50.013Z,22.33
2022-12-18T05:14:16.958Z,25.90
2022-12-18T05:16:43.888Z,25.77
2022-12-18T05:19:11.502Z,24.33
2022-12-18T05:21:38.796Z,21.83
2022-12-18T05:24:06.209Z,23.70
2022-12-18T05:26:33.148Z,22.30
2022-12-18T05:29:00.181Z,23.47
2022-12-18T05:31:27.216Z,25.97
2022-12-18T05:33:55.034Z,22.17
2022-12-18T05:36:21.985Z,23.03
2022-12-18T05:38:48.985Z,28.43
2022-12-18T05:41:16.097Z,31.27
2022-12-18T05:43:43.852Z,29.93
2022-12-18T05:46:16.358Z,28.20
2022-12-18T05:48:43.689Z,31.90
2022-12-18T05:51:15.569Z,35.13
2022-12-18T05:53:43.846Z,33.23
2022-12-18T05:56:22.426Z,37.67
2022-12-18T05:58:54.441Z,37.57
2022-12-18T06:01:26.153Z,34.57
2022-12-18T06:03:53.480Z,40.27
2022-12-18T06:06:27.031Z,35.33
2022-12-18T06:08:55.995Z,39.93
2022-12-18T06:11:27.292Z,43.73
2022-12-18T06:13:58.984Z,42.57
2022-12-18T06:16:28.088Z,41.07
2022-12-18T06:18:58.613Z,45.17
2022-12-18T06:21:26.060Z,49.60
2022-12-18T06:23:53.097Z,46.33
2022-12-18T06:26:26.180Z,40.87
2022-12-18T06:28:54.976Z,44.07
2022-12-18T06:31:22.002Z,48.10
2022-12-18T06:33:49.015Z,43.53
2022-12-18T06:36:16.863Z,44.90
2022-12-18T06:38:45.350Z,46.37
2022-12-18T06:41:16.147Z,48.87
2022-12-18T06:43:44.757Z,50.33
2022-12-18T06:46:12.822Z,50.07
2022-12-18T06:48:40.392Z,49.57
2022-12-18T06:51:07.697Z,40.07
2022-12-18T06:53:34.664Z,48.50
2022-12-18T06:56:10.415Z,50.20
2022-12-18T06:58:39.353Z,40.10
2022-12-18T07:01:09.703Z,39.90
2022-12-18T07:03:38.788Z,51.57
2022-12-18T07:06:07.010Z,48.73
2022-12-18T07:08:34.370Z,46.97
2022-12-18T07:11:05.469Z,48.23
2022-12-18T07:13:32.923Z,47.63
2022-12-18T07:16:26.985Z,47.43
2022-12-18T07:18:56.227Z,51.17
2022-12-18T07:21:24.617Z,47.20
2022-12-18T07:23:51.764Z,43.37
2022-12-18T07:26:21.787Z,43.53
2022-12-18T07:28:49.502Z,49.17
2022-12-18T07:31:21.579Z,51.37
2022-12-18T07:33:50.214Z,52.20
2022-12-18T07:36:17.387Z,44.37
2022-12-18T07:38:47.229Z,49.97
2022-12-18T07:41:14.881Z,51.70
2022-12-18T07:43:42.731Z,48.23
2022-12-18T07:46:11.829Z,51.63
2022-12-18T07:48:42.292Z,46.67
2022-12-18T07:51:11.567Z,48.60
2022-12-18T07:53:39.157Z,52.33
2022-12-18T07:56:28.109Z,50.30
2022-12-18T07:58:58.014Z,43.47
2022-12-18T08:01:25.450Z,44.73
2022-12-18T08:03:52.760Z,47.40
2022-12-18T08:06:22.703Z,50.80
2022-12-18T08:08:56.681Z,46.23
2022-12-18T08:11:26.174Z,46.23
2022-12-18T08:13:53.644Z,42.43
2022-12-18T08:16:22.771Z,44.70
2022-12-18T08:18:50.469Z,46.57
2022-12-18T08:21:30.884Z,46.03
2022-12-18T08:24:00.568Z,45.87
2022-12-18T08:26:30.618Z,41.10
2022-12-18T08:28:59.836Z,43.97
2022-12-18T08:31:29.383Z,42.10
2022-12-18T08:33:57.082Z,41.90
2022-12-18T08:36:25.437Z,45.13
2022-12-18T08:38:54.182Z,47.17
2022-12-18T08:41:22.194Z,39.47
2022-12-18T08:44:07.775Z,43.63
2022-12-18T08:46:40.875Z,47.50
2022-12-18T08:49:09.198Z,40.87
2022-12-18T08:51:37.023Z,41.43
2022-12-18T08:54:06.385Z,46.60
2022-12-18T08:56:34.460Z,44.27
2022-12-18T08:59:01.539Z,47.47
2022-12-18T09:01:29.433Z,48.60
2022-12-18T09:03:56.764Z,45.37
2022-12-18T09:06:24.304Z,45.33
2022-12-18T09:08:51.558Z,44.57
2022-12-18T09:11:25.723Z,44.80
2022-12-18T09:13:54.828Z,47.17
2022-12-18T09:16:30.136Z,46.33
2022-12-18T09:19:02.959Z,45.73
2022-12-18T09:21:35.972Z,46.60
2022-12-18T09:24:08.632Z,48.77
2022-12-18T09:26:36.659Z,43.60
2022-12-18T09:29:04.499Z,44.87
2022-12-18T09:31:31.470Z,39.53
2022-12-18T09:33:58.453Z,44.87
2022-12-18T09:36:25.456Z,45.87
2022-12-18T09:38:52.456Z,43.97
2022-12-18T09:41:48.485Z,42.33
2022-12-18T09:44:41.429Z,40.80
2022-12-18T09:47:21.607Z,46.93
2022-12-18T09:49:53.644Z,44.10
2022-12-18T09:52:26.867Z,47.37
2022-12-18T09:55:11.974Z,45.03
2022-12-18T09:57:48.721Z,43.80
2022-12-18T10:00:23.400Z,45.20
2022-12-18T10:02:54.131Z,45.57
2022-12-18T10:05:42.398Z,46.20
2022-12-18T10:08:25.466Z,45.50
2022-12-18T10:11:27.082Z,39.90
2022-12-18T10:14:16.819Z,41.80
2022-12-18T10:16:59.467Z,42.67
2022-12-18T10:19:35.136Z,45.07
2022-12-18T10:22:16.861Z,43.10
2022-12-18T10:25:05.156Z,41.57
2022-12-18T10:27:32.309Z,46.47
2022-12-18T10:30:02.379Z,46.20
2022-12-18T10:32:31.735Z,39.67
2022-12-18T10:35:00.753Z,44.43
2022-12-18T10:37:30.736Z,44.87
2022-12-18T10:40:21.930Z,49.20
2022-12-18T10:43:05.233Z,52.63
2022-12-18T10:45:32.327Z,46.80
2022-12-18T10:47:59.803Z,50.17
2022-12-18T10:51:09.775Z,39.90
2022-12-18T10:53:29.136Z,41.10
2022-12-18T10:56:03.472Z,42.03
2022-12-18T10:58:33.877Z,42.50
2022-12-18T11:01:13.045Z,46.57
2022-12-18T11:03:47.793Z,43.87
2022-12-18T11:06:19.671Z,39.63
2022-12-18T11:09:26.035Z,44.83
2022-12-18T11:12:00.303Z,43.87
2022-12-18T11:14:34.781Z,53.93
2022-12-18T11:17:24.777Z,53.90
2022-12-18T11:20:10.487Z,51.87
2022-12-18T11:22:39.285Z,53.90
2022-12-18T11:25:32.359Z,48.53
2022-12-18T11:28:26.194Z,52.70
2022-12-18T11:31:17.047Z,53.80
2022-12-18T11:34:28.468Z,54.10
2022-12-18T11:36:56.375Z,54.50
2022-12-18T11:39:47.108Z,50.20
2022-12-18T11:42:39.434Z,52.90
2022-12-18T11:45:12.571Z,51.37
2022-12-18T11:48:25.977Z,53.30
2022-12-18T11:50:59.956Z,61.77
2022-12-18T11:53:28.576Z,56.27
2022-12-18T11:56:15.717Z,59.03
2022-12-18T11:59:18.839Z,59.70
2022-12-18T12:02:11.102Z,66.63
2022-12-18T12:05:27.413Z,50.97
2022-12-18T12:08:25.650Z,63.40
2022-12-18T12:11:21.439Z,60.20
2022-12-18T12:14:02.970Z,61.37
2022-12-18T12:17:10.156Z,64.00
2022-12-18T12:19:42.752Z,58.13
2022-12-18T12:22:31.167Z,64.90
2022-12-18T12:25:29.206Z,55.53
2022-12-18T12:28:17.177Z,60.97
2022-12-18T12:31:27.397Z,59.30
2022-12-18T12:34:08.749Z,53.63
2022-12-18T12:37:18.749Z,64.67
2022-12-18T12:39:49.393Z,59.10
2022-12-18T12:43:01.810Z,55.00
2022-12-18T12:45:57.022Z,55.63
2022-12-18T12:48:37.960Z,56.67
2022-12-18T12:51:33.128Z,56.53
2022-12-18T12:54:02.581Z,56.23
2022-12-18T12:56:47.326Z,60.90
2022-12-18T12:59:36.634Z,62.70
2022-12-18T13:02:16.517Z,57.77
2022-12-18T13:04:59.064Z,63.60
2022-12-18T13:07:47.181Z,60.90
2022-12-18T13:10:32.614Z,58.60
2022-12-18T13:13:17.937Z,57.23
2022-12-18T13:16:09.100Z,62.73
2022-12-18T13:18:36.568Z,60.07
2022-12-18T13:21:24.416Z,53.83
2022-12-18T13:23:51.738Z,61.47
2022-12-18T13:26:22.067Z,63.50
2022-12-18T13:28:56.228Z,63.57
2022-12-18T13:31:41.719Z,66.03
2022-12-18T13:37:42.871Z,53.90
2022-12-18T13:40:41.206Z,59.53
2022-12-18T13:43:25.437Z,57.13
2022-12-18T13:46:43.187Z,58.67
2022-12-18T13:49:42.500Z,62.33
2022-12-18T13:52:34.312Z,58.80
2022-12-18T13:55:08.109Z,59.40
2022-12-18T13:57:41.785Z,58.07
2022-12-18T14:00:24.136Z,55.87
2022-12-18T14:02:52.156Z,58.27
2022-12-18T14:05:30.954Z,61.43
2022-12-18T14:08:05.859Z,56.57
2022-12-18T14:10:42.231Z,57.73
2022-12-18T14:13:43.090Z,53.20
2022-12-18T14:16:17.679Z,51.73
2022-12-18T14:18:56.358Z,54.70
2022-12-18T14:21:31.129Z,56.93
2022-12-18T14:24:17.564Z,59.80
2022-12-18T14:26:51.024Z,60.33
2022-12-18T14:29:27.739Z,50.67
2022-12-18T14:32:18.656Z,53.33
2022-12-18T14:34:52.095Z,54.17
2022-12-18T14:37:27.301Z,57.97
2022-12-18T14:40:10.590Z,59.60
2022-12-18T14:42:38.798Z,51.27
2022-12-18T14:45:42.386Z,61.73
2022-12-18T14:48:23.362Z,55.47
2022-12-18T14:51:04.533Z,55.73
2022-12-18T14:53:39.210Z,55.17
2022-12-18T14:56:35.553Z,59.20
2022-12-18T14:59:23.865Z,56.33
2022-12-18T15:02:12.287Z,50.03
2022-12-18T15:04:44.667Z,53.13
2022-12-18T15:07:24.484Z,54.53
2022-12-18T15:10:22.137Z,57.70
2022-12-18T15:13:10.576Z,54.73
2022-12-18T15:15:37.648Z,52.73
2022-12-18T15:18:13.669Z,55.60
2022-12-18T15:20:49.538Z,50.87
2022-12-18T15:23:45.417Z,55.60
2022-12-18T15:26:15.920Z,56.10
2022-12-18T15:28:57.014Z,58.30
2022-12-18T15:31:29.849Z,52.17
2022-12-18T15:33:56.930Z,55.20
2022-12-18T15:36:26.490Z,58.13
2022-12-18T15:39:02.194Z,63.00
2022-12-18T15:41:37.669Z,55.80
2022-12-18T15:44:26.467Z,58.73
2022-12-18T15:46:53.640Z,53.20
2022-12-18T15:49:20.778Z,52.90
2022-12-18T15:51:55.867Z,54.77
2022-12-18T15:54:43.227Z,57.30
2022-12-18T15:57:24.197Z,59.80
2022-12-18T15:59:59.179Z,59.13
2022-12-18T16:02:26.893Z,65.87
2022-12-18T16:04:55.113Z,59.40
2022-12-18T16:07:24.579Z,65.77
2022-12-18T16:09:52.735Z,60.60
2022-12-18T16:12:25.532Z,63.83
2022-12-18T16:14:52.537Z,65.80
2022-12-18T16:17:19.528Z,59.70
2022-12-18T16:19:46.754Z,61.83
2022-12-18T16:22:26.307Z,65.87
2022-12-18T16:24:54.417Z,63.83
2022-12-18T16:27:22.817Z,56.20
2022-12-18T16:29:50.388Z,59.00
2022-12-18T16:32:23.420Z,57.30
2022-12-18T16:34:50.822Z,60.77
2022-12-18T16:37:18.171Z,55.97
2022-12-18T16:39:45.598Z,54.33
2022-12-18T16:42:19.820Z,54.63
2022-12-18T16:44:48.974Z,57.07
2022-12-18T16:47:16.842Z,55.97
2022-12-18T16:49:51.724Z,53.60
2022-12-18T16:52:19.303Z,57.00
2022-12-18T16:54:46.246Z,52.43
2022-12-18T16:57:18.038Z,48.73
2022-12-18T16:59:45.882Z,53.70
2022-12-18T17:02:30.373Z,50.23
2022-12-18T17:04:58.625Z,50.27
2022-12-18T17:07:27.355Z,42.33
2022-12-18T17:09:55.159Z,52.73
2022-12-18T17:12:23.559Z,52.63
2022-12-18T17:14:50.697Z,47.63
2022-12-18T17:17:21.482Z,47.80
2022-12-18T17:19:50.256Z,49.63
2022-12-18T17:22:17.873Z,53.70
2022-12-18T17:24:44.962Z,47.53
2022-12-18T17:27:12.209Z,50.90
2022-12-18T17:29:45.380Z,50.13
2022-12-18T17:32:14.972Z,49.53
2022-12-18T17:34:42.243Z,52.00
2022-12-18T17:37:09.902Z,49.70
2022-12-18T17:39:37.461Z,57.30
2022-12-18T17:42:05.313Z,54.47
2022-12-18T17:44:34.479Z,48.10
2022-12-18T17:47:02.381Z,48.33
2022-12-18T17:49:29.683Z,50.90
2022-12-18T17:51:56.668Z,46.63
2022-12-18T17:54:23.883Z,46.30
2022-12-18T17:56:51.029Z,53.07
2022-12-18T17:59:18.060Z,42.17
2022-12-18T18:01:45.724Z,56.33
2022-12-18T18:04:14.135Z,54.83
2022-12-18T18:06:41.789Z,50.37
2022-12-18T18:09:15.135Z,51.50
2022-12-18T18:12:03.739Z,51.37
2022-12-18T18:14:31.409Z,54.10
2022-12-18T18:17:04.307Z,52.70
2022-12-18T18:19:33.119Z,44.57
2022-12-18T18:22:00.503Z,45.70
2022-12-18T18:24:28.148Z,50.40
2022-12-18T18:26:55.102Z,51.97
2022-12-18T18:29:26.706Z,43.80
2022-12-18T18:31:54.904Z,52.63
2022-12-18T18:34:28.765Z,47.07
2022-12-18T18:36:55.825Z,50.77
2022-12-18T18:39:23.460Z,53.77
2022-12-18T18:41:50.578Z,49.03
2022-12-18T18:44:20.652Z,50.10
2022-12-18T18:46:58.543Z,50.83
2022-12-18T18:49:27.731Z,46.87
2022-12-18T18:51:56.542Z,43.33
2022-12-18T18:54:24.614Z,46.10
2022-12-18T18:59:38.908Z,48.33
2022-12-18T19:02:06.539Z,53.33
2022-12-18T19:04:34.613Z,49.43
2022-12-18T19:07:01.642Z,53.63
2022-12-18T19:09:29.513Z,51.87
2022-12-18T19:12:15.718Z,49.33
2022-12-18T19:14:43.987Z,48.30
2022-12-18T19:17:11.394Z,53.33
2022-12-18T19:19:38.960Z,53.27
2022-12-18T19:22:06.323Z,53.93
2022-12-18T19:24:33.379Z,50.97
2022-12-18T19:27:00.378Z,49.80
2022-12-18T19:29:27.441Z,56.00
2022-12-18T19:31:54.433Z,59.00
2022-12-18T19:34:21.534Z,57.30
2022-12-18T19:36:48.520Z,56.67
2022-12-18T19:39:19.275Z,57.60
2022-12-18T19:41:47.309Z,52.37
2022-12-18T19:44:16.799Z,57.23
2022-12-18T19:46:46.258Z,50.67
2022-12-18T19:49:17.701Z,53.83
2022-12-18T19:51:45.848Z,55.90
2022-12-18T19:54:16.908Z,56.77
2022-12-18T19:56:45.466Z,47.23
2022-12-18T19:59:12.879Z,51.87
2022-12-18T20:01:40.235Z,51.97
2022-12-18T20:04:07.523Z,44.37
2022-12-18T20:06:56.500Z,43.30
2022-12-18T20:09:23.698Z,50.70
2022-12-18T20:11:50.871Z,51.70
2022-12-18T20:14:22.688Z,40.13
2022-12-18T20:16:51.534Z,44.70
2022-12-18T20:19:19.357Z,43.17
2022-12-18T20:21:46.635Z,45.10
2022-12-18T20:24:13.810Z,44.60
2022-12-18T20:26:40.895Z,40.40
2022-12-18T20:29:07.910Z,42.67
2022-12-18T20:31:35.113Z,47.13
2022-12-18T20:34:02.711Z,42.00
2022-12-18T20:36:32.835Z,46.87
2022-12-18T20:39:02.626Z,41.80
2022-12-18T20:41:38.085Z,39.03
2022-12-18T20:44:11.185Z,41.60
2022-12-18T20:46:52.913Z,41.90
2022-12-18T20:49:19.952Z,39.70
2022-12-18T20:51:51.602Z,43.03
2022-12-18T20:54:18.627Z,44.53
2022-12-18T20:56:45.597Z,38.93
2022-12-18T20:59:12.957Z,40.40
2022-12-18T21:01:40.859Z,38.30
2022-12-18T21:04:14.507Z,42.57
2022-12-18T21:06:42.922Z,42.40
2022-12-18T21:09:12.994Z,41.97
2022-12-18T21:12:10.374Z,41.87
2022-12-18T21:14:39.443Z,43.27
2022-12-18T21:17:06.578Z,46.37
2022-12-18T21:19:33.627Z,48.20
2022-12-18T21:22:00.856Z,47.80
2022-12-18T21:24:28.196Z,50.13
2022-12-18T21:26:58.990Z,47.97
2022-12-18T21:29:26.724Z,45.13
2022-12-18T21:31:54.958Z,41.93
2022-12-18T21:34:30.318Z,43.70
2022-12-18T21:36:59.734Z,43.03
2022-12-18T21:39:28.675Z,44.83
2022-12-18T21:42:15.212Z,49.63
2022-12-18T21:44:43.293Z,44.40
2022-12-18T21:47:22.387Z,51.13
2022-12-18T21:49:53.641Z,53.73
2022-12-18T21:52:29.834Z,49.37
2022-12-18T21:55:08.909Z,39.17
2022-12-18T21:57:39.102Z,45.20
2022-12-18T22:00:10.517Z,40.27
2022-12-18T22:02:39.882Z,40.77
2022-12-18T22:05:07.561Z,41.97
2022-12-18T22:07:34.723Z,35.63
2022-12-18T22:10:02.169Z,43.50
2022-12-18T22:12:38.050Z,39.27
2022-12-18T22:15:21.011Z,43.10
2022-12-18T22:17:50.527Z,42.33
2022-12-18T22:20:20.194Z,41.23
2022-12-18T22:22:48.580Z,40.23
2022-12-18T22:25:15.593Z,47.40
2022-12-18T22:27:43.130Z,43.73
2022-12-18T22:30:14.488Z,35.07
2022-12-18T22:32:41.494Z,36.20
2022-12-18T22:35:14.290Z,42.23
2022-12-18T22:37:42.919Z,47.63
2022-12-18T22:40:25.446Z,38.57
2022-12-18T22:42:54.466Z,39.83
2022-12-18T22:45:22.932Z,39.10
2022-12-18T22:47:50.485Z,44.50
2022-12-18T22:50:17.757Z,41.40
2022-12-18T22:52:45.012Z,38.53
2022-12-18T22:55:11.950Z,45.30
2022-12-18T22:57:40.728Z,35.67
2022-12-18T23:00:13.549Z,41.93
2022-12-18T23:02:40.774Z,37.83
2022-12-18T23:05:08.567Z,43.03
2022-12-18T23:07:35.656Z,38.07
2022-12-18T23:10:02.630Z,44.00
2022-12-18T23:12:29.587Z,39.37
2022-12-18T23:14:56.624Z,41.03
2022-12-18T23:17:23.659Z,35.27
2022-12-18T23:19:51.108Z,43.47
2022-12-18T23:22:18.279Z,46.73
2022-12-18T23:24:46.064Z,40.83
2022-12-18T23:27:13.213Z,44.23
2022-12-18T23:29:40.868Z,50.67
2022-12-18T23:32:08.494Z,37.77
2022-12-18T23:34:35.531Z,35.03
2022-12-18T23:37:03.832Z,31.13
2022-12-18T23:39:31.227Z,34.20
2022-12-18T23:42:01.725Z,34.23
2022-12-18T23:44:28.925Z,30.23
2022-12-18T23:46:56.157Z,30.93
2022-12-18T23:49:23.419Z,33.60
2022-12-18T23:51:50.714Z,34.80
2022-12-18T23:54:22.369Z,34.93
2022-12-18T23:57:00.900Z,29.60
2022-12-18T23:59:27.880Z,28.77
